createdAt,value
2019-03-20T00:01:48.613Z,4.20
2019-03-20T00:06:53.097Z,4.60
2019-03-20T00:11:58.550Z,4.13
2019-03-20T00:17:04.422Z,4.57
2019-03-20T00:22:11.119Z,4.85
2019-03-20T00:27:17.370Z,4.77
2019-03-20T00:32:22.321Z,4.33
2019-03-20T00:37:26.708Z,5.23
2019-03-20T00:42:31.766Z,4.40
2019-03-20T00:47:37.074Z,4.17
2019-03-20T00:52:42.189Z,4.87
2019-03-20T00:57:47.741Z,4.03
2019-03-20T01:02:53.450Z,4.57
2019-03-20T01:07:58.281Z,4.70
2019-03-20T01:13:03.789Z,5.28
2019-03-20T01:18:11.310Z,5.60
2019-03-20T01:23:18.704Z,4.53
2019-03-20T01:28:23.581Z,5.15
2019-03-20T01:33:28.598Z,5.22
2019-03-20T01:38:36.546Z,5.73
2019-03-20T01:43:41.019Z,5.17
2019-03-20T01:48:45.347Z,5.90
2019-03-20T01:53:50.126Z,5.43
2019-03-20T01:58:55.401Z,5.33
2019-03-20T02:04:00.777Z,5.50
2019-03-20T02:09:09.888Z,5.37
2019-03-20T02:14:14.211Z,5.17
2019-03-20T02:19:19.039Z,4.70
2019-03-20T02:24:23.599Z,4.73
2019-03-20T02:29:29.611Z,4.87
2019-03-20T02:34:34.013Z,5.20
2019-03-20T02:39:39.170Z,4.10
2019-03-20T02:44:43.688Z,4.77
2019-03-20T02:49:48.586Z,5.17
2019-03-20T02:54:54.513Z,5.27
2019-03-20T02:59:59.592Z,4.80
2019-03-20T03:05:04.649Z,4.57
2019-03-20T03:10:10.175Z,4.13
2019-03-20T03:15:15.227Z,4.67
2019-03-20T03:20:19.636Z,5.07
2019-03-20T03:25:24.757Z,4.50
2019-03-20T03:30:29.789Z,4.83
2019-03-20T03:35:34.428Z,4.97
2019-03-20T03:40:38.893Z,4.37
2019-03-20T03:45:43.538Z,5.50
2019-03-20T03:50:51.083Z,5.90
2019-03-20T03:55:55.524Z,4.63
2019-03-20T04:01:00.124Z,5.85
2019-03-20T04:06:05.251Z,5.10
2019-03-20T04:11:09.616Z,4.93
2019-03-20T04:16:14.204Z,5.63
2019-03-20T04:21:18.736Z,5.50
2019-03-20T04:26:23.908Z,5.42
2019-03-20T04:31:28.400Z,5.40
2019-03-20T04:36:33.414Z,5.33
2019-03-20T04:41:38.219Z,6.00
2019-03-20T04:46:43.333Z,4.73
2019-03-20T04:51:48.972Z,5.60
2019-03-20T04:56:56.067Z,5.27
2019-03-20T05:02:01.570Z,6.60
2019-03-20T05:07:06.324Z,5.70
2019-03-20T05:12:11.264Z,5.53
2019-03-20T05:17:16.781Z,5.10
2019-03-20T05:22:24.481Z,5.63
2019-03-20T05:27:32.301Z,5.53
2019-03-20T05:32:37.077Z,4.97
2019-03-20T05:37:43.141Z,6.23
2019-03-20T05:42:48.694Z,5.83
2019-03-20T05:47:54.826Z,4.87
2019-03-20T05:52:59.530Z,5.33
2019-03-20T05:58:05.474Z,6.13
2019-03-20T06:03:10.790Z,5.97
2019-03-20T06:08:16.940Z,5.93
2019-03-20T06:13:22.099Z,6.13
2019-03-20T06:18:27.628Z,6.60
2019-03-20T06:23:34.705Z,6.15
2019-03-20T06:28:39.168Z,7.40
2019-03-20T06:33:44.237Z,6.80
2019-03-20T06:38:50.067Z,6.50
2019-03-20T06:43:54.845Z,4.60
2019-03-20T06:48:59.341Z,3.37
2019-03-20T06:54:04.338Z,2.73
2019-03-20T06:59:50.008Z,2.70
2019-03-20T07:05:34.319Z,2.00
2019-03-20T07:11:16.303Z,2.27
2019-03-20T07:16:21.591Z,1.95
2019-03-20T07:21:26.489Z,2.20
2019-03-20T07:26:31.863Z,3.00
2019-03-20T07:31:36.765Z,3.27
2019-03-20T07:36:41.952Z,3.30
2019-03-20T07:41:48.647Z,3.65
2019-03-20T07:46:54.474Z,3.00
2019-03-20T07:52:00.970Z,3.17
2019-03-20T07:57:05.846Z,3.30
2019-03-20T08:02:10.291Z,2.85
2019-03-20T08:07:14.991Z,3.55
2019-03-20T08:12:20.249Z,3.25
2019-03-20T08:17:25.139Z,3.55
2019-03-20T08:22:29.919Z,3.50
2019-03-20T08:27:34.933Z,3.12
2019-03-20T08:32:40.013Z,2.92
2019-03-20T08:37:44.571Z,3.20
2019-03-20T08:48:11.414Z,4.50
2019-03-20T08:53:16.273Z,2.77
2019-03-20T08:58:20.929Z,3.15
2019-03-20T09:03:25.728Z,3.10
2019-03-20T09:08:30.163Z,3.00
2019-03-20T09:13:34.962Z,3.40
2019-03-20T09:18:40.561Z,3.35
2019-03-20T09:23:49.817Z,2.40
2019-03-20T09:28:55.161Z,2.98
2019-03-20T09:34:00.568Z,3.08
2019-03-20T09:39:07.637Z,2.83
2019-03-20T09:44:12.728Z,2.83
2019-03-20T09:49:18.099Z,2.70
2019-03-20T09:54:22.453Z,2.00
2019-03-20T09:59:27.393Z,1.70
2019-03-20T10:04:32.035Z,2.95
2019-03-20T10:09:36.518Z,1.50
2019-03-20T10:14:41.134Z,1.37
2019-03-20T10:19:45.783Z,1.50
2019-03-20T10:24:50.822Z,1.53
2019-03-20T10:29:55.371Z,1.90
2019-03-20T10:35:00.347Z,2.27
2019-03-20T10:40:06.232Z,2.30
2019-03-20T10:45:13.292Z,2.10
2019-03-20T10:50:21.385Z,2.03
2019-03-20T10:55:25.567Z,1.60
2019-03-20T11:00:30.528Z,1.60
2019-03-20T11:05:38.272Z,1.53
2019-03-20T11:10:44.314Z,1.60
2019-03-20T11:15:49.074Z,1.50
2019-03-20T11:20:54.814Z,1.57
2019-03-20T11:26:00.210Z,1.63
2019-03-20T11:31:06.176Z,2.00
2019-03-20T11:36:11.977Z,1.80
2019-03-20T11:41:17.135Z,1.90
2019-03-20T11:46:22.872Z,2.80
2019-03-20T11:51:28.922Z,1.60
2019-03-20T11:56:36.614Z,2.07
2019-03-20T12:01:41.134Z,1.90
2019-03-20T12:06:45.941Z,1.77
2019-03-20T12:11:56.674Z,1.93
2019-03-20T12:17:02.504Z,1.70
2019-03-20T12:22:10.470Z,2.10
2019-03-20T12:27:20.226Z,1.50
2019-03-20T12:32:26.409Z,2.00
2019-03-20T12:37:32.552Z,1.97
2019-03-20T12:42:37.699Z,2.07
2019-03-20T12:47:44.264Z,2.30
2019-03-20T12:52:49.274Z,1.80
2019-03-20T12:57:56.213Z,1.40
2019-03-20T13:03:01.264Z,2.33
2019-03-20T13:08:06.999Z,1.70
2019-03-20T13:13:16.165Z,2.13
2019-03-20T13:18:21.211Z,1.90
2019-03-20T13:23:32.293Z,1.57
2019-03-20T13:28:40.942Z,1.37
2019-03-20T13:33:45.606Z,1.43
2019-03-20T13:38:50.536Z,1.37
2019-03-20T13:43:58.541Z,1.47
2019-03-20T13:49:10.372Z,2.40
2019-03-20T13:54:15.005Z,2.17
2019-03-20T13:59:20.133Z,1.67
2019-03-20T14:04:25.148Z,2.80
2019-03-20T14:09:33.275Z,1.90
2019-03-20T14:14:38.352Z,1.87
2019-03-20T14:19:53.091Z,2.33
2019-03-20T14:25:04.113Z,2.70
2019-03-20T14:30:12.953Z,1.40
2019-03-20T14:35:21.723Z,1.97
2019-03-20T14:40:35.494Z,2.03
2019-03-20T14:45:37.656Z,2.00
2019-03-20T14:50:42.821Z,3.03
2019-03-20T14:55:48.622Z,1.77
2019-03-20T15:00:53.618Z,2.50
2019-03-20T15:05:58.719Z,2.30
2019-03-20T15:11:05.366Z,3.47
2019-03-20T15:16:12.344Z,2.30
2019-03-20T15:21:17.052Z,3.27
2019-03-20T15:26:21.722Z,3.10
2019-03-20T15:31:35.882Z,2.87
2019-03-20T15:36:42.154Z,1.90
2019-03-20T15:41:48.561Z,1.57
2019-03-20T15:46:53.459Z,2.23
2019-03-20T15:51:58.361Z,2.10
2019-03-20T15:57:03.462Z,1.60
2019-03-20T16:02:09.302Z,2.20
2019-03-20T16:07:16.279Z,1.50
2019-03-20T16:12:21.370Z,2.10
2019-03-20T16:17:29.154Z,1.87
2019-03-20T16:22:33.701Z,1.97
2019-03-20T16:27:38.689Z,1.47
2019-03-20T16:32:43.596Z,1.70
2019-03-20T16:37:49.342Z,1.50
2019-03-20T16:42:54.045Z,1.70
2019-03-20T16:47:58.653Z,1.80
2019-03-20T16:53:07.915Z,1.87
2019-03-20T16:58:19.073Z,1.40
2019-03-20T17:03:25.657Z,1.50
2019-03-20T17:08:37.518Z,1.57
2019-03-20T17:13:40.919Z,1.93
2019-03-20T17:18:48.063Z,1.17
2019-03-20T17:23:54.284Z,1.87
2019-03-20T17:29:08.879Z,1.80
2019-03-20T17:34:09.894Z,1.50
2019-03-20T17:39:17.111Z,1.60
2019-03-20T17:44:21.826Z,2.17
2019-03-20T17:49:26.890Z,2.17
2019-03-20T17:54:33.094Z,2.10
2019-03-20T17:59:48.384Z,1.57
2019-03-20T18:04:54.269Z,1.87
2019-03-20T18:09:59.939Z,1.50
2019-03-20T18:15:05.881Z,1.40
2019-03-20T18:20:13.168Z,5.30
2019-03-20T18:25:18.441Z,12.20
2019-03-20T18:30:29.396Z,9.10
2019-03-20T18:35:35.007Z,4.30
2019-03-20T18:40:40.302Z,3.03
2019-03-20T18:45:45.222Z,2.20
2019-03-20T18:50:50.315Z,2.37
2019-03-20T18:55:55.913Z,2.20
2019-03-20T19:01:01.021Z,2.47
2019-03-20T19:06:14.293Z,3.37
2019-03-20T19:11:19.886Z,4.27
2019-03-20T19:16:25.467Z,3.72
2019-03-20T19:21:32.300Z,3.30
2019-03-20T19:26:37.734Z,2.90
2019-03-20T19:31:44.015Z,4.17
2019-03-20T19:36:51.366Z,4.17
2019-03-20T19:41:56.101Z,6.87
2019-03-20T19:47:01.224Z,13.40
2019-03-20T19:52:13.906Z,11.70
2019-03-20T19:57:18.428Z,12.07
2019-03-20T20:02:23.182Z,12.00
2019-03-20T20:07:28.115Z,8.03
2019-03-20T20:12:32.889Z,7.17
2019-03-20T20:17:38.847Z,9.17
2019-03-20T20:22:47.866Z,9.27
2019-03-20T20:27:53.716Z,19.47
2019-03-20T20:32:58.948Z,13.93
2019-03-20T20:38:04.370Z,4.80
2019-03-20T20:43:09.462Z,3.50
2019-03-20T20:48:15.853Z,4.10
2019-03-20T20:53:20.706Z,3.47
2019-03-20T20:58:25.597Z,3.33
2019-03-20T21:03:31.366Z,4.27
2019-03-20T21:08:37.422Z,3.40
2019-03-20T21:13:47.453Z,5.43
2019-03-20T21:19:35.193Z,4.13
2019-03-20T21:24:41.547Z,3.50
2019-03-20T21:30:11.799Z,3.03
2019-03-20T21:35:56.268Z,2.97
2019-03-20T21:42:00.532Z,6.23
2019-03-20T21:47:32.525Z,4.70
2019-03-20T21:52:38.152Z,2.90
2019-03-20T21:57:52.053Z,3.70
2019-03-20T22:02:57.502Z,5.47
2019-03-20T22:08:02.864Z,5.70
2019-03-20T22:13:38.840Z,7.90
2019-03-20T22:19:27.352Z,16.07
2019-03-20T22:25:28.196Z,10.90
2019-03-20T22:30:33.655Z,5.30
2019-03-20T22:36:07.764Z,6.50
2019-03-20T22:41:46.054Z,6.10
2019-03-20T22:47:19.309Z,7.83
2019-03-20T22:53:31.984Z,6.40
2019-03-20T22:58:51.288Z,15.57
2019-03-20T23:04:01.195Z,22.40
2019-03-20T23:09:11.098Z,22.50
2019-03-20T23:14:16.316Z,15.10
2019-03-20T23:19:25.084Z,10.30
2019-03-20T23:24:35.104Z,9.47
2019-03-20T23:29:40.833Z,9.57
2019-03-20T23:34:47.230Z,10.63
2019-03-20T23:39:55.591Z,5.50
2019-03-20T23:45:05.620Z,3.43
2019-03-20T23:50:10.204Z,3.50
2019-03-20T23:55:21.365Z,3.13
